Time;durP1;ratioP1;P1;durP2;ratioP2;P2;SDS_P1;SDS_P2;PMS_P1;PMS_P2;Temp;Humidity;BMP_temperature;BMP_pressure;BME280_temperature;BME280_humidity;BME280_pressure;Samples;Min_cycle;Max_cycle;Signal;HPM_P1;HPM_P2
2022/02/18 00:00:48;;;;;;;17.23;9.27;;;7.40;99.90;;;;;;4991995;28;20642;-66
2022/02/18 00:03:14;;;;;;;22.23;9.27;;;7.40;99.90;;;;;;4991627;28;20271;-66
2022/02/18 00:05:41;;;;;;;15.10;9.10;;;7.50;99.90;;;;;;4992078;28;20184;-65
2022/02/18 00:08:07;;;;;;;11.10;8.70;;;7.50;99.90;;;;;;4990778;28;20647;-65
2022/02/18 00:10:33;;;;;;;18.10;8.13;;;7.50;99.90;;;;;;4990620;28;20219;-66
2022/02/18 00:13:00;;;;;;;11.37;8.73;;;7.50;99.90;;;;;;4990207;28;20180;-65
2022/02/18 00:15:26;;;;;;;11.33;8.20;;;7.40;99.90;;;;;;4992007;28;20705;-66
2022/02/18 00:17:52;;;;;;;23.60;9.03;;;7.50;99.90;;;;;;4991565;28;20204;-67
2022/02/18 00:20:18;;;;;;;14.63;8.17;;;7.50;99.90;;;;;;4992289;28;20268;-66
2022/02/18 00:22:43;;;;;;;24.67;8.83;;;7.60;99.90;;;;;;4991236;28;20275;-66
2022/02/18 00:25:10;;;;;;;13.33;8.30;;;7.60;99.90;;;;;;4991796;28;20177;-65
2022/02/18 00:27:37;;;;;;;23.97;8.73;;;7.60;99.90;;;;;;4989073;28;20555;-66
2022/02/18 00:30:04;;;;;;;16.67;8.47;;;7.60;99.90;;;;;;4991221;28;20206;-68
2022/02/18 00:32:30;;;;;;;14.67;8.57;;;7.70;99.90;;;;;;4993630;28;20185;-68
2022/02/18 00:34:56;;;;;;;19.63;9.13;;;7.70;99.90;;;;;;4995842;28;20173;-68
2022/02/18 00:37:21;;;;;;;15.40;8.70;;;7.70;99.90;;;;;;4995433;28;20188;-67
2022/02/18 00:39:47;;;;;;;15.50;8.70;;;7.70;99.90;;;;;;4995634;28;20543;-66
2022/02/18 00:42:13;;;;;;;23.43;9.23;;;7.80;99.90;;;;;;4995154;28;20188;-66
2022/02/18 00:44:38;;;;;;;15.97;8.47;;;7.80;99.90;;;;;;4993742;28;20181;-65
2022/02/18 00:47:05;;;;;;;16.70;9.40;;;7.80;99.90;;;;;;4994331;28;20184;-66
2022/02/18 00:49:31;;;;;;;13.77;9.80;;;7.80;99.90;;;;;;4995168;28;20201;-65
2022/02/18 00:51:56;;;;;;;15.53;9.83;;;7.80;99.90;;;;;;4995274;28;20192;-65
2022/02/18 00:54:22;;;;;;;16.63;10.33;;;7.90;99.90;;;;;;4995089;28;20599;-64
2022/02/18 00:56:50;;;;;;;20.67;10.10;;;7.90;99.90;;;;;;4993834;28;20627;-66
2022/02/18 00:59:17;;;;;;;22.00;11.40;;;7.90;99.90;;;;;;4995207;28;20653;-65
2022/02/18 01:01:43;;;;;;;21.40;9.67;;;8.00;99.90;;;;;;4995241;28;20188;-65
2022/02/18 01:04:08;;;;;;;17.47;9.73;;;8.00;99.90;;;;;;4993897;28;20235;-66
2022/02/18 01:06:34;;;;;;;17.97;8.13;;;8.00;99.90;;;;;;4994808;28;20173;-65
2022/02/18 01:09:00;;;;;;;19.23;8.67;;;8.10;99.90;;;;;;4993651;28;20254;-68
2022/02/18 01:11:27;;;;;;;17.20;8.60;;;8.10;99.90;;;;;;4993428;28;20240;-66
2022/02/18 01:13:53;;;;;;;16.23;8.67;;;8.10;99.90;;;;;;4994671;28;20548;-66
2022/02/18 01:16:19;;;;;;;17.27;9.33;;;8.10;99.90;;;;;;4994752;28;20251;-65
2022/02/18 01:18:44;;;;;;;21.70;10.47;;;8.10;99.90;;;;;;4994825;28;20231;-66
2022/02/18 01:21:10;;;;;;;20.13;9.80;;;8.10;99.90;;;;;;4994688;28;20215;-66
2022/02/18 01:23:36;;;;;;;9.93;8.60;;;8.20;99.90;;;;;;4993290;28;20185;-67
2022/02/18 01:26:03;;;;;;;12.73;9.07;;;8.20;99.90;;;;;;4992957;28;20304;-66
2022/02/18 01:28:29;;;;;;;16.33;8.97;;;8.20;99.90;;;;;;4994461;28;20196;-65
2022/02/18 01:30:55;;;;;;;14.83;8.67;;;8.20;99.90;;;;;;4994310;28;20220;-66
2022/02/18 01:33:21;;;;;;;15.57;9.33;;;8.10;99.90;;;;;;4994418;28;20177;-66
2022/02/18 01:35:47;;;;;;;19.70;8.93;;;8.10;99.90;;;;;;4993065;28;20749;-67
2022/02/18 01:38:12;;;;;;;18.83;8.77;;;8.10;99.90;;;;;;4994223;28;20204;-66
2022/02/18 01:40:38;;;;;;;23.30;9.23;;;8.10;99.90;;;;;;4992737;28;20639;-66
2022/02/18 01:43:03;;;;;;;16.37;8.67;;;8.10;99.90;;;;;;4993343;28;20177;-65
2022/02/18 01:45:29;;;;;;;20.77;9.20;;;8.10;99.90;;;;;;4994380;28;20259;-65
2022/02/18 01:47:55;;;;;;;11.43;8.53;;;8.20;99.90;;;;;;4994169;28;20570;-66
2022/02/18 01:50:21;;;;;;;12.00;8.07;;;8.20;99.90;;;;;;4992947;28;20204;-66
2022/02/18 01:52:48;;;;;;;21.43;9.17;;;8.20;99.90;;;;;;4994294;28;20279;-66
2022/02/18 01:55:16;;;;;;;17.40;9.00;;;8.30;99.90;;;;;;4993034;28;20540;-66
2022/02/18 01:57:48;;;;;;;15.27;8.23;;;8.20;99.90;;;;;;4992917;28;20200;-66
2022/02/18 02:00:16;;;;;;;14.27;9.03;;;8.30;99.90;;;;;;4994079;28;20239;-66
2022/02/18 02:02:42;;;;;;;16.23;7.97;;;8.20;99.90;;;;;;4993696;28;20587;-66
2022/02/18 02:05:09;;;;;;;11.97;8.50;;;8.20;99.90;;;;;;4992641;28;20627;-65
2022/02/18 02:07:36;;;;;;;12.83;7.90;;;8.20;99.90;;;;;;4993826;28;20285;-66
2022/02/18 02:10:02;;;;;;;23.87;9.13;;;8.20;99.90;;;;;;4992505;28;20236;-66
2022/02/18 02:12:28;;;;;;;17.23;9.47;;;8.20;99.90;;;;;;4993420;28;20180;-65
2022/02/18 02:14:54;;;;;;;12.23;8.43;;;8.20;99.90;;;;;;4993842;28;20547;-66
2022/02/18 02:17:19;;;;;;;17.00;9.70;;;8.10;99.90;;;;;;4993841;28;20184;-66
2022/02/18 02:19:45;;;;;;;18.43;9.57;;;8.10;99.90;;;;;;4993257;28;20192;-66
2022/02/18 02:22:14;;;;;;;17.10;9.23;;;8.20;99.90;;;;;;4993476;28;20181;-66
2022/02/18 02:24:39;;;;;;;19.03;8.33;;;8.10;99.90;;;;;;4993183;28;20188;-66
2022/02/18 02:27:05;;;;;;;21.50;9.70;;;8.10;99.90;;;;;;4993759;28;20180;-66
2022/02/18 02:29:31;;;;;;;17.77;9.63;;;8.10;99.90;;;;;;4991746;28;20685;-65
2022/02/18 02:31:57;;;;;;;16.27;9.33;;;8.20;99.90;;;;;;4993682;28;20177;-66
2022/02/18 02:34:23;;;;;;;12.93;9.07;;;8.10;99.90;;;;;;4993299;28;20593;-65
2022/02/18 02:36:50;;;;;;;27.37;9.97;;;8.20;99.90;;;;;;4993209;28;20192;-66
2022/02/18 02:39:15;;;;;;;13.07;8.30;;;8.10;99.90;;;;;;4992187;28;20200;-66
2022/02/18 02:41:42;;;;;;;15.70;9.03;;;8.10;99.90;;;;;;4991651;28;20647;-65
2022/02/18 02:44:07;;;;;;;15.77;9.00;;;8.10;99.90;;;;;;4992980;28;20173;-66
2022/02/18 02:46:35;;;;;;;18.20;9.47;;;8.10;99.90;;;;;;4992891;28;20177;-66
2022/02/18 02:49:01;;;;;;;14.07;8.63;;;8.10;99.90;;;;;;4993154;28;20623;-65
2022/02/18 02:51:26;;;;;;;18.47;9.23;;;8.20;99.90;;;;;;4993018;28;20295;-66
2022/02/18 02:53:52;;;;;;;15.77;8.73;;;8.10;99.90;;;;;;4992476;28;20185;-66
2022/02/18 02:56:18;;;;;;;16.53;9.10;;;8.10;99.90;;;;;;4991675;28;20268;-66
2022/02/18 02:58:44;;;;;;;10.63;8.20;;;8.10;99.90;;;;;;4991398;28;20219;-65
2022/02/18 03:01:10;;;;;;;16.97;8.43;;;8.10;99.90;;;;;;4991565;28;20725;-66
2022/02/18 03:03:35;;;;;;;23.03;8.50;;;8.10;99.90;;;;;;4992665;28;20264;-66
2022/02/18 03:06:02;;;;;;;13.17;8.10;;;8.10;99.90;;;;;;4993159;28;20219;-66
2022/02/18 03:08:28;;;;;;;15.67;9.00;;;8.10;99.90;;;;;;4992441;28;20216;-66
2022/02/18 03:13:38;;;;;;;19.80;8.77;;;8.10;99.90;;;;;;4992750;28;20218;-66
2022/02/18 03:16:04;;;;;;;11.37;8.60;;;8.10;99.90;;;;;;4992548;28;20173;-66
2022/02/18 03:18:30;;;;;;;14.83;8.40;;;8.10;99.90;;;;;;4991135;28;20193;-65
2022/02/18 03:20:56;;;;;;;12.13;8.47;;;8.00;99.90;;;;;;4991200;28;20184;-65
2022/02/18 03:23:21;;;;;;;13.97;8.57;;;8.00;99.90;;;;;;4991140;28;20180;-66
2022/02/18 03:25:47;;;;;;;20.70;8.87;;;8.00;99.90;;;;;;4991036;28;20185;-66
2022/02/18 03:28:13;;;;;;;12.30;8.50;;;8.00;99.90;;;;;;4991945;28;20283;-66
2022/02/18 03:30:39;;;;;;;16.23;8.67;;;8.10;99.90;;;;;;4992206;28;20201;-65
2022/02/18 03:33:05;;;;;;;13.00;8.30;;;8.10;99.90;;;;;;4992041;28;20176;-66
2022/02/18 03:35:30;;;;;;;14.60;9.90;;;8.10;99.90;;;;;;4990998;28;20180;-65
2022/02/18 03:37:56;;;;;;;14.10;8.17;;;8.10;99.90;;;;;;4992251;28;20200;-66
2022/02/18 03:40:23;;;;;;;16.60;8.73;;;8.10;99.90;;;;;;4991518;28;20184;-66
2022/02/18 03:42:48;;;;;;;14.27;8.73;;;8.10;99.90;;;;;;4991736;28;20276;-66
2022/02/18 03:45:14;;;;;;;13.33;7.93;;;8.10;99.90;;;;;;4991256;28;20284;-66
2022/02/18 03:47:40;;;;;;;16.10;8.80;;;8.00;99.90;;;;;;4991916;28;20196;-66
2022/02/18 03:50:06;;;;;;;11.97;8.47;;;8.00;99.90;;;;;;4992277;28;20212;-66
2022/02/18 03:52:32;;;;;;;12.50;8.33;;;8.00;99.90;;;;;;4991645;28;20177;-65
2022/02/18 03:54:57;;;;;;;16.87;9.67;;;8.00;99.90;;;;;;4992022;28;20706;-66
2022/02/18 03:57:24;;;;;;;9.57;8.43;;;8.00;99.90;;;;;;4990635;28;20701;-66
2022/02/18 03:59:50;;;;;;;13.97;8.00;;;7.90;99.90;;;;;;4992444;28;20571;-66
2022/02/18 04:02:15;;;;;;;10.43;7.30;;;7.90;99.90;;;;;;4990385;28;20169;-66
2022/02/18 04:04:41;;;;;;;16.63;8.53;;;7.90;99.90;;;;;;4991860;28;20180;-66
2022/02/18 04:07:07;;;;;;;14.63;8.00;;;7.80;99.90;;;;;;4990209;28;20267;-66
2022/02/18 04:09:33;;;;;;;19.97;8.70;;;7.80;99.90;;;;;;4991174;28;20212;-66
2022/02/18 04:11:59;;;;;;;9.57;8.03;;;7.80;99.90;;;;;;4990406;28;20176;-66
2022/02/18 04:14:24;;;;;;;11.20;8.10;;;7.80;99.90;;;;;;4991863;28;20184;-65
2022/02/18 04:16:50;;;;;;;9.73;7.50;;;7.80;99.90;;;;;;4990624;28;20219;-66
2022/02/18 04:19:15;;;;;;;9.63;8.03;;;7.80;99.90;;;;;;4992025;28;20735;-66
2022/02/18 04:21:43;;;;;;;15.47;8.03;;;7.80;99.90;;;;;;4990539;28;20188;-66
2022/02/18 04:24:09;;;;;;;12.60;8.53;;;7.90;99.90;;;;;;4991860;28;20217;-66
2022/02/18 04:26:34;;;;;;;19.03;8.37;;;7.90;99.90;;;;;;4990382;28;20204;-66
2022/02/18 04:29:00;;;;;;;9.63;7.60;;;7.90;99.90;;;;;;4992156;28;20271;-66
2022/02/18 04:31:26;;;;;;;13.60;7.70;;;8.00;99.90;;;;;;4991650;28;20201;-66
2022/02/18 04:33:51;;;;;;;21.13;9.10;;;8.00;99.90;;;;;;4990477;28;20200;-66
2022/02/18 04:36:17;;;;;;;14.47;8.73;;;8.00;99.90;;;;;;4990433;28;20654;-65
2022/02/18 04:38:43;;;;;;;13.63;8.57;;;8.00;99.90;;;;;;4991502;28;20196;-66
2022/02/18 04:41:09;;;;;;;11.63;7.77;;;8.00;99.90;;;;;;4990304;28;20192;-65
2022/02/18 04:43:35;;;;;;;9.33;7.57;;;8.10;99.90;;;;;;4990340;28;20216;-65
2022/02/18 04:46:00;;;;;;;19.40;7.93;;;8.10;99.90;;;;;;4991813;28;20223;-65
2022/02/18 04:48:26;;;;;;;18.60;8.67;;;8.10;99.90;;;;;;4990457;28;20283;-66
2022/02/18 04:50:52;;;;;;;14.27;8.17;;;8.10;99.90;;;;;;4991434;28;20208;-66
2022/02/18 04:53:17;;;;;;;12.70;8.33;;;8.10;99.90;;;;;;4989909;28;20729;-67
2022/02/18 04:55:43;;;;;;;13.13;7.87;;;8.20;99.90;;;;;;4991578;28;20196;-66
2022/02/18 04:58:08;;;;;;;17.77;8.43;;;8.10;99.90;;;;;;4990053;28;20197;-66
2022/02/18 05:00:34;;;;;;;13.63;8.00;;;8.10;99.90;;;;;;4989763;28;20207;-65
2022/02/18 05:03:00;;;;;;;12.50;7.70;;;8.10;99.90;;;;;;4991274;28;20300;-65
2022/02/18 05:05:25;;;;;;;12.10;7.67;;;8.00;99.90;;;;;;4991164;28;20654;-66
2022/02/18 05:07:51;;;;;;;10.73;7.80;;;8.00;99.90;;;;;;4990025;28;20244;-65
2022/02/18 05:10:16;;;;;;;11.83;7.97;;;8.00;99.90;;;;;;4989945;28;20765;-66
2022/02/18 05:12:42;;;;;;;8.40;7.03;;;8.00;99.90;;;;;;4990955;28;20170;-66
2022/02/18 05:15:08;;;;;;;13.17;8.10;;;8.00;99.90;;;;;;4991307;28;20177;-66
2022/02/18 05:17:34;;;;;;;8.43;6.73;;;8.00;99.90;;;;;;4992360;28;20177;-65
2022/02/18 05:19:59;;;;;;;12.33;7.93;;;8.00;99.90;;;;;;4995020;28;20196;-66
2022/02/18 05:22:25;;;;;;;19.47;8.00;;;8.00;99.90;;;;;;4993782;28;20350;-66
2022/02/18 05:24:51;;;;;;;14.70;7.37;;;8.00;99.90;;;;;;4993455;28;20524;-66
2022/02/18 05:27:16;;;;;;;14.17;7.60;;;8.00;99.90;;;;;;4993869;28;20180;-66
2022/02/18 05:29:42;;;;;;;11.90;7.80;;;8.00;99.90;;;;;;4994788;28;20215;-66
2022/02/18 05:32:08;;;;;;;9.33;7.80;;;8.00;99.90;;;;;;4993954;28;20172;-65
2022/02/18 05:34:34;;;;;;;10.67;8.37;;;8.00;99.90;;;;;;4994407;28;20251;-65
2022/02/18 05:37:00;;;;;;;17.97;8.53;;;8.10;99.90;;;;;;4993280;28;20308;-66
2022/02/18 05:39:26;;;;;;;15.17;7.23;;;8.00;99.90;;;;;;4993539;28;20189;-66
2022/02/18 05:41:52;;;;;;;11.07;8.27;;;8.00;99.90;;;;;;4994467;28;20222;-66
2022/02/18 05:44:18;;;;;;;19.50;7.70;;;8.00;99.90;;;;;;4994449;28;20195;-66
2022/02/18 05:46:43;;;;;;;17.47;8.47;;;7.90;99.90;;;;;;4994343;28;20169;-65
2022/02/18 05:49:09;;;;;;;10.87;7.57;;;7.90;99.90;;;;;;4994953;28;20586;-65
2022/02/18 05:51:36;;;;;;;14.30;8.30;;;7.80;99.90;;;;;;4993381;28;20291;-66
2022/02/18 05:54:02;;;;;;;9.53;7.93;;;7.80;99.90;;;;;;4994605;28;20180;-66
2022/02/18 05:56:28;;;;;;;17.17;8.73;;;7.70;99.90;;;;;;4994359;28;20251;-66
2022/02/18 05:58:53;;;;;;;16.00;7.43;;;7.70;99.90;;;;;;4993998;28;20212;-66
2022/02/18 06:01:20;;;;;;;15.33;8.63;;;7.60;99.90;;;;;;4994181;28;20176;-65
2022/02/18 06:03:48;;;;;;;15.40;8.80;;;7.70;99.90;;;;;;4993425;28;20189;-66
2022/02/18 06:06:14;;;;;;;13.57;7.87;;;7.70;99.90;;;;;;4992753;28;20635;-66
2022/02/18 06:08:39;;;;;;;14.37;9.43;;;7.70;99.90;;;;;;4993408;28;20212;-66
2022/02/18 06:11:05;;;;;;;14.23;8.50;;;7.80;99.90;;;;;;4993900;28;20192;-65
2022/02/18 06:13:31;;;;;;;23.03;9.63;;;7.90;99.90;;;;;;4993125;28;20577;-65
2022/02/18 06:15:56;;;;;;;18.73;9.00;;;7.90;99.90;;;;;;4992692;28;20173;-66
2022/02/18 06:18:22;;;;;;;12.73;9.33;;;7.90;99.90;;;;;;4993432;28;20200;-66
2022/02/18 06:20:48;;;;;;;17.00;10.03;;;7.90;99.90;;;;;;4993487;28;20189;-67
2022/02/18 06:23:13;;;;;;;11.20;9.30;;;7.90;99.90;;;;;;4992853;28;20177;-65
2022/02/18 06:25:40;;;;;;;12.30;9.23;;;7.80;99.90;;;;;;4991062;28;20311;-66
2022/02/18 06:28:11;;;;;;;14.57;9.47;;;7.80;99.90;;;;;;4992788;28;20196;-66
2022/02/18 06:30:42;;;;;;;19.70;12.00;;;7.70;99.90;;;;;;4993252;28;20204;-67
2022/02/18 06:33:09;;;;;;;22.33;8.93;;;7.70;99.90;;;;;;4993415;28;20544;-66
2022/02/18 06:35:39;;;;;;;13.50;9.37;;;7.60;99.90;;;;;;4993508;28;20173;-67
2022/02/18 06:38:07;;;;;;;18.93;9.20;;;7.60;99.90;;;;;;4993692;28;20189;-66
2022/02/18 06:40:32;;;;;;;19.10;8.93;;;7.60;99.90;;;;;;4991658;28;20173;-66
2022/02/18 06:42:58;;;;;;;21.87;8.77;;;7.60;99.90;;;;;;4993302;28;20184;-66
2022/02/18 06:45:24;;;;;;;16.80;8.47;;;7.60;99.90;;;;;;4993108;28;20529;-67
2022/02/18 06:47:49;;;;;;;15.67;8.23;;;7.60;99.90;;;;;;4991832;28;20193;-67
2022/02/18 06:50:16;;;;;;;19.03;8.13;;;7.60;99.90;;;;;;4993075;28;20205;-67
2022/02/18 06:52:43;;;;;;;11.43;7.93;;;7.60;99.90;;;;;;4991069;28;20176;-66
2022/02/18 06:55:09;;;;;;;16.97;8.73;;;7.60;99.90;;;;;;4991909;28;20666;-67
2022/02/18 06:57:43;;;;;;;15.00;8.70;;;7.60;99.90;;;;;;4992909;28;20264;-67
2022/02/18 07:00:13;;;;;;;18.43;8.07;;;7.70;99.90;;;;;;4991835;28;20168;-66
2022/02/18 07:02:39;;;;;;;18.00;8.83;;;7.60;99.90;;;;;;4990733;28;20188;-67
2022/02/18 07:05:13;;;;;;;17.00;8.77;;;7.60;99.90;;;;;;4991530;28;20216;-66
2022/02/18 07:07:39;;;;;;;16.07;9.90;;;7.60;99.90;;;;;;4981254;28;20268;-66
2022/02/18 07:10:07;;;;;;;17.97;9.13;;;7.60;99.90;;;;;;4992991;28;20666;-66
2022/02/18 07:12:33;;;;;;;14.40;7.67;;;7.60;99.90;;;;;;4990622;28;20187;-66
2022/02/18 07:14:59;;;;;;;17.47;10.10;;;7.60;99.90;;;;;;4991259;28;20181;-66
2022/02/18 07:17:27;;;;;;;20.60;9.20;;;7.60;99.90;;;;;;4992501;28;20173;-67
2022/02/18 07:19:53;;;;;;;13.60;9.50;;;7.60;99.90;;;;;;4992513;28;20259;-65
2022/02/18 07:22:20;;;;;;;16.90;9.20;;;7.60;99.90;;;;;;4992046;28;20653;-67
2022/02/18 07:24:47;;;;;;;14.77;8.30;;;7.70;99.90;;;;;;4992270;28;20264;-67
2022/02/18 07:27:13;;;;;;;16.50;8.30;;;7.70;99.90;;;;;;4992257;28;20173;-66
2022/02/18 07:29:39;;;;;;;26.47;8.97;;;7.70;99.90;;;;;;4992203;28;20200;-66
2022/02/18 07:32:05;;;;;;;16.13;9.73;;;7.70;99.90;;;;;;4992261;28;20173;-66
2022/02/18 07:34:31;;;;;;;18.30;9.93;;;7.80;99.90;;;;;;4991927;28;20180;-66
2022/02/18 07:36:56;;;;;;;19.40;8.77;;;7.80;99.90;;;;;;4992272;28;20173;-67
2022/02/18 07:39:22;;;;;;;19.57;8.90;;;7.80;99.90;;;;;;4990766;28;20204;-66
2022/02/18 07:41:48;;;;;;;20.47;9.03;;;7.90;99.90;;;;;;4991306;28;20622;-67
2022/02/18 07:44:13;;;;;;;15.90;8.93;;;7.90;99.90;;;;;;4990774;28;20183;-66
2022/02/18 07:46:39;;;;;;;17.53;10.30;;;8.00;99.90;;;;;;4990562;28;20176;-65
2022/02/18 07:49:05;;;;;;;19.73;10.53;;;8.00;99.90;;;;;;4992299;28;20224;-66
2022/02/18 07:51:31;;;;;;;18.70;10.23;;;8.00;99.90;;;;;;4991773;28;20208;-66
2022/02/18 07:53:56;;;;;;;25.07;10.50;;;8.10;99.90;;;;;;4990847;28;20173;-66
2022/02/18 07:56:22;;;;;;;15.53;9.77;;;8.10;99.90;;;;;;4992083;28;20179;-66
2022/02/18 07:58:48;;;;;;;26.50;11.13;;;8.10;99.90;;;;;;4991608;28;20239;-66
2022/02/18 08:01:17;;;;;;;23.27;9.93;;;8.20;99.90;;;;;;4992434;28;20168;-67
2022/02/18 08:03:44;;;;;;;27.17;9.53;;;8.20;99.90;;;;;;4991788;28;20185;-66
2022/02/18 08:06:10;;;;;;;13.53;9.77;;;8.30;99.90;;;;;;4992477;28;20518;-67
2022/02/18 08:08:38;;;;;;;10.47;8.97;;;8.40;99.90;;;;;;4991308;28;20220;-67
2022/02/18 08:11:04;;;;;;;14.53;8.27;;;8.60;99.90;;;;;;4990666;28;20307;-66
2022/02/18 08:13:30;;;;;;;17.90;8.73;;;8.70;99.90;;;;;;4991561;28;20583;-66
2022/02/18 08:15:56;;;;;;;18.57;9.47;;;8.90;99.90;;;;;;4991812;28;20180;-66
2022/02/18 08:18:22;;;;;;;14.03;8.77;;;9.00;99.90;;;;;;4990342;28;20205;-66
2022/02/18 08:20:48;;;;;;;25.33;9.17;;;9.10;99.90;;;;;;4990341;28;20541;-66
2022/02/18 08:23:13;;;;;;;11.30;8.47;;;9.20;99.90;;;;;;4991218;28;20208;-66
2022/02/18 08:25:39;;;;;;;18.47;9.53;;;9.30;99.90;;;;;;4991472;28;20176;-67
2022/02/18 08:28:05;;;;;;;11.10;7.80;;;9.40;99.90;;;;;;4991455;28;20666;-67
2022/02/18 08:30:30;;;;;;;9.17;7.30;;;9.40;99.90;;;;;;4991548;28;20212;-66
2022/02/18 08:32:57;;;;;;;16.33;8.10;;;9.50;99.90;;;;;;4991087;28;20173;-67
2022/02/18 08:35:23;;;;;;;11.43;8.30;;;9.60;99.90;;;;;;4991463;28;20271;-66
2022/02/18 08:37:48;;;;;;;12.93;7.70;;;9.70;99.90;;;;;;4990269;28;20859;-66
2022/02/18 08:40:14;;;;;;;8.73;8.07;;;9.70;99.90;;;;;;4991445;28;20249;-67
2022/02/18 08:42:40;;;;;;;8.10;6.57;;;9.80;99.90;;;;;;4989854;28;20721;-67
2022/02/18 08:45:06;;;;;;;7.90;6.90;;;9.80;99.90;;;;;;4989982;28;20223;-66
2022/02/18 08:47:32;;;;;;;8.00;6.57;;;10.00;99.90;;;;;;4991490;28;20173;-66
2022/02/18 08:49:58;;;;;;;7.37;6.20;;;10.10;99.90;;;;;;4989697;28;20205;-67
2022/02/18 08:52:24;;;;;;;8.77;6.57;;;10.20;99.90;;;;;;4992777;28;20219;-67
2022/02/18 08:54:49;;;;;;;9.13;6.40;;;10.20;99.90;;;;;;4993476;28;20192;-66
2022/02/18 08:57:15;;;;;;;7.50;6.90;;;10.30;99.90;;;;;;4995173;28;20261;-66
2022/02/18 08:59:41;;;;;;;11.00;6.93;;;10.40;99.90;;;;;;4994939;28;20196;-66
2022/02/18 09:02:10;;;;;;;8.20;6.27;;;10.40;99.90;;;;;;4993701;28;20280;-66
2022/02/18 09:04:36;;;;;;;6.60;6.00;;;10.50;99.90;;;;;;4993196;28;20177;-66
2022/02/18 09:07:02;;;;;;;7.57;6.70;;;10.60;99.90;;;;;;4993788;28;20639;-67
2022/02/18 09:09:27;;;;;;;6.77;6.10;;;10.60;99.90;;;;;;4995089;28;20212;-66
2022/02/18 09:11:53;;;;;;;7.17;6.20;;;10.60;99.90;;;;;;4995052;28;20184;-66
2022/02/18 09:14:19;;;;;;;6.93;6.23;;;10.70;99.90;;;;;;4993480;28;20180;-66
2022/02/18 09:16:45;;;;;;;6.67;5.80;;;10.80;99.90;;;;;;4994567;28;20642;-67
2022/02/18 09:19:11;;;;;;;6.40;5.97;;;10.90;99.90;;;;;;4993570;28;20201;-66
2022/02/18 09:21:37;;;;;;;5.90;5.50;;;11.00;99.90;;;;;;4993367;28;20184;-67
2022/02/18 09:24:03;;;;;;;5.93;5.53;;;11.00;99.90;;;;;;4993378;28;20279;-67
2022/02/18 09:26:29;;;;;;;6.10;5.60;;;11.10;99.90;;;;;;4993332;28;20268;-67
2022/02/18 09:28:55;;;;;;;7.60;6.30;;;11.20;99.90;;;;;;4994490;28;20201;-66
2022/02/18 09:31:22;;;;;;;8.30;6.50;;;11.20;99.90;;;;;;4994864;28;20573;-67
2022/02/18 09:33:49;;;;;;;6.50;6.00;;;11.20;99.90;;;;;;4992917;28;20181;-67
2022/02/18 09:36:15;;;;;;;5.90;5.40;;;11.30;99.90;;;;;;4994893;28;20521;-66
2022/02/18 09:38:41;;;;;;;6.40;5.90;;;11.40;99.90;;;;;;4993055;28;20207;-67
2022/02/18 09:41:07;;;;;;;5.87;5.37;;;11.50;99.90;;;;;;4994504;28;20181;-66
2022/02/18 09:43:36;;;;;;;5.60;5.30;;;11.60;99.90;;;;;;4994309;28;20208;-66
2022/02/18 09:46:02;;;;;;;5.67;5.47;;;11.70;99.90;;;;;;4993396;28;20185;-67
2022/02/18 09:48:28;;;;;;;5.67;5.37;;;11.80;99.90;;;;;;4994431;28;20566;-66
2022/02/18 09:50:55;;;;;;;5.80;5.30;;;12.00;99.90;;;;;;4994389;28;20205;-66
2022/02/18 09:53:21;;;;;;;5.50;5.20;;;12.00;99.90;;;;;;4994100;28;20232;-66
2022/02/18 09:55:48;;;;;;;5.90;5.50;;;12.10;99.90;;;;;;4994448;28;20184;-66
2022/02/18 09:58:20;;;;;;;5.50;5.20;;;12.20;99.90;;;;;;4992852;28;20197;-66
2022/02/18 10:00:46;;;;;;;5.40;5.00;;;12.30;99.90;;;;;;4993780;28;20255;-66
2022/02/18 10:03:12;;;;;;;6.70;6.40;;;12.30;99.90;;;;;;4993076;28;20177;-66
2022/02/18 10:05:38;;;;;;;5.40;5.10;;;12.40;99.90;;;;;;4993187;28;20181;-66
2022/02/18 10:08:12;;;;;;;5.63;5.23;;;12.40;99.90;;;;;;4994313;28;20264;-66
2022/02/18 10:10:42;;;;;;;5.33;5.13;;;12.50;99.90;;;;;;4994112;28;20201;-66
2022/02/18 10:13:27;;;;;;;5.83;5.47;;;12.60;99.90;;;;;;4992564;28;20271;-66
2022/02/18 10:15:56;;;;;;;6.40;5.83;;;12.60;99.90;;;;;;4992472;28;20181;-67
2022/02/18 10:18:21;;;;;;;5.83;5.53;;;12.70;99.90;;;;;;4993866;28;20220;-66
2022/02/18 10:20:49;;;;;;;6.33;5.73;;;12.70;99.90;;;;;;4972999;28;20268;-66
2022/02/18 10:23:17;;;;;;;6.17;5.57;;;12.80;99.90;;;;;;4973974;28;20181;-66
2022/02/18 10:25:45;;;;;;;5.57;5.27;;;12.80;99.90;;;;;;4988725;28;20188;-67
2022/02/18 10:28:13;;;;;;;5.70;5.30;;;12.80;99.90;;;;;;4993605;28;20348;-67
2022/02/18 10:30:39;;;;;;;5.30;5.10;;;12.90;99.90;;;;;;4992812;28;20212;-66
2022/02/18 10:33:22;;;;;;;5.60;5.30;;;13.00;99.90;;;;;;4993238;28;20177;-66
2022/02/18 10:35:59;;;;;;;5.83;5.43;;;13.10;99.90;;;;;;4991668;28;20184;-66
2022/02/18 10:38:37;;;;;;;5.60;5.30;;;13.20;99.90;;;;;;4993370;28;20220;-66
2022/02/18 10:41:18;;;;;;;5.50;5.10;;;13.40;99.90;;;;;;4991773;28;20204;-66
2022/02/18 10:43:45;;;;;;;5.50;5.20;;;13.50;99.90;;;;;;4991607;28;20315;-66
2022/02/18 10:46:11;;;;;;;6.83;5.90;;;13.60;99.90;;;;;;4992949;28;20193;-66
2022/02/18 10:48:53;;;;;;;5.20;4.90;;;13.60;99.90;;;;;;4992959;28;20280;-65
2022/02/18 10:51:24;;;;;;;5.50;5.20;;;13.60;99.90;;;;;;4991647;28;20704;-66
2022/02/18 10:53:51;;;;;;;5.63;5.33;;;13.60;99.90;;;;;;4992050;28;20250;-66
2022/02/18 10:56:18;;;;;;;5.30;5.00;;;13.60;99.90;;;;;;4993388;28;20252;-66
2022/02/18 10:58:48;;;;;;;5.60;5.10;;;13.60;99.90;;;;;;4991270;28;20204;-66
2022/02/18 11:01:25;;;;;;;6.00;5.70;;;13.60;99.90;;;;;;4993077;28;20211;-66
2022/02/18 11:03:57;;;;;;;5.50;5.13;;;13.70;99.90;;;;;;4991055;28;20188;-65
2022/02/18 11:06:25;;;;;;;5.37;5.10;;;13.70;99.90;;;;;;4993065;28;20263;-68
2022/02/18 11:08:52;;;;;;;5.20;5.00;;;13.70;99.90;;;;;;4992129;28;20220;-65
2022/02/18 11:11:18;;;;;;;5.10;4.90;;;13.80;99.90;;;;;;4992715;28;20216;-66
2022/02/18 11:13:46;;;;;;;4.90;4.70;;;13.80;99.90;;;;;;4991743;28;20625;-68
2022/02/18 11:16:15;;;;;;;5.03;4.70;;;13.70;99.90;;;;;;4992552;28;20568;-67
2022/02/18 11:18:41;;;;;;;5.20;5.00;;;13.70;99.90;;;;;;4991170;28;20464;-65
2022/02/18 11:21:12;;;;;;;5.13;4.93;;;13.70;99.90;;;;;;4992711;28;20191;-65
2022/02/18 11:23:42;;;;;;;6.03;5.67;;;13.70;99.90;;;;;;4992130;28;20646;-65
2022/02/18 11:26:11;;;;;;;5.70;5.40;;;13.70;99.90;;;;;;4992191;28;20688;-65
2022/02/18 11:28:36;;;;;;;5.20;5.00;;;13.70;99.90;;;;;;4991138;28;20201;-66
2022/02/18 11:31:06;;;;;;;5.60;5.30;;;13.70;99.90;;;;;;4990942;28;20219;-66
2022/02/18 11:33:34;;;;;;;5.33;5.03;;;13.60;99.90;;;;;;4992197;28;20173;-66
2022/02/18 11:36:41;;;;;;;5.60;5.30;;;13.70;99.90;;;;;;4992349;28;20198;-66
2022/02/18 11:39:55;;;;;;;5.10;4.90;;;13.80;99.90;;;;;;4991047;28;20567;-66
2022/02/18 11:42:47;;;;;;;6.10;5.87;;;13.90;99.90;;;;;;4964767;28;20201;-66
2022/02/18 11:45:16;;;;;;;5.20;5.00;;;14.00;99.90;;;;;;4972596;28;20272;-66
2022/02/18 11:47:42;;;;;;;5.43;5.23;;;14.10;99.90;;;;;;4990662;28;20200;-68
2022/02/18 11:50:14;;;;;;;5.30;5.10;;;14.10;99.90;;;;;;4990926;28;20211;-66
2022/02/18 11:52:49;;;;;;;5.03;4.83;;;14.20;99.90;;;;;;4972353;28;20227;-66
2022/02/18 11:55:29;;;;;;;5.40;5.10;;;14.20;99.90;;;;;;4991450;28;20176;-66
2022/02/18 11:58:12;;;;;;;5.00;4.80;;;14.20;99.90;;;;;;4992083;28;20203;-66
2022/02/18 12:00:40;;;;;;;6.00;5.80;;;14.20;99.90;;;;;;4972746;28;20522;-66
2022/02/18 12:03:17;;;;;;;5.07;4.87;;;14.20;99.90;;;;;;4972301;28;20182;-66
2022/02/18 12:06:20;;;;;;;5.27;4.97;;;14.30;99.90;;;;;;4972269;28;20605;-66
2022/02/18 12:08:49;;;;;;;5.30;4.97;;;14.30;99.90;;;;;;4976857;28;20243;-65
2022/02/18 12:11:17;;;;;;;4.73;4.53;;;14.30;99.90;;;;;;4990545;28;20212;-65
2022/02/18 12:13:52;;;;;;;4.90;4.70;;;14.40;99.90;;;;;;4991331;28;20180;-66
2022/02/18 12:16:19;;;;;;;5.10;4.90;;;14.40;99.90;;;;;;4990752;28;20207;-65
2022/02/18 12:19:14;;;;;;;4.90;4.70;;;14.40;99.90;;;;;;4991447;28;20207;-66
2022/02/18 12:21:55;;;;;;;4.70;4.50;;;14.50;99.90;;;;;;4991181;28;20172;-66
2022/02/18 12:24:39;;;;;;;5.40;5.20;;;14.60;99.90;;;;;;4989213;28;20547;-66
2022/02/18 12:27:22;;;;;;;5.20;5.00;;;14.70;99.90;;;;;;4992704;28;20185;-66
2022/02/18 12:29:48;;;;;;;5.10;4.90;;;14.70;99.90;;;;;;4993827;28;20206;-66
2022/02/18 12:32:15;;;;;;;6.03;5.73;;;14.70;99.90;;;;;;4994202;28;20188;-66
2022/02/18 12:34:41;;;;;;;5.53;5.30;;;14.80;99.90;;;;;;4995282;28;20714;-65
2022/02/18 12:37:16;;;;;;;5.10;4.80;;;14.90;99.90;;;;;;4995509;28;20263;-66
2022/02/18 12:39:43;;;;;;;5.00;4.80;;;14.90;99.90;;;;;;4993759;28;20208;-66
2022/02/18 12:42:13;;;;;;;5.63;5.23;;;14.90;99.90;;;;;;4995376;28;20547;-66
2022/02/18 12:45:00;;;;;;;5.33;5.03;;;15.00;99.90;;;;;;4995220;28;20264;-66
2022/02/18 12:47:33;;;;;;;5.10;4.90;;;14.90;99.90;;;;;;4995514;28;20177;-66
2022/02/18 12:50:11;;;;;;;5.20;4.80;;;14.90;99.90;;;;;;4995119;28;20240;-66
2022/02/18 12:52:39;;;;;;;4.80;4.60;;;15.00;99.90;;;;;;4994949;28;20251;-66